sensor_id;sensor_type;location;lat;lon;timestamp;P1;durP1;ratioP1;P2;durP2;ratioP2
2898;SDS011;1459;50.864;6.438;2022-07-23T00:00:20;18.25;;;15.90;;
2898;SDS011;1459;50.864;6.438;2022-07-23T00:02:48;18.38;;;15.68;;
2898;SDS011;1459;50.864;6.438;2022-07-23T00:05:15;17.75;;;15.10;;
2898;SDS011;1459;50.864;6.438;2022-07-23T00:07:45;19.10;;;14.70;;
2898;SDS011;1459;50.864;6.438;2022-07-23T00:10:12;15.02;;;13.27;;
2898;SDS011;1459;50.864;6.438;2022-07-23T00:12:42;16.55;;;14.88;;
2898;SDS011;1459;50.864;6.438;2022-07-23T00:15:09;16.55;;;13.80;;
2898;SDS011;1459;50.864;6.438;2022-07-23T00:17:36;18.63;;;14.88;;
2898;SDS011;1459;50.864;6.438;2022-07-23T00:20:07;17.42;;;15.60;;
2898;SDS011;1459;50.864;6.438;2022-07-23T00:22:35;16.65;;;14.88;;
2898;SDS011;1459;50.864;6.438;2022-07-23T00:25:02;18.88;;;15.27;;
2898;SDS011;1459;50.864;6.438;2022-07-23T00:27:29;16.88;;;14.50;;
2898;SDS011;1459;50.864;6.438;2022-07-23T00:29:56;16.55;;;13.90;;
2898;SDS011;1459;50.864;6.438;2022-07-23T00:32:23;17.40;;;15.25;;
2898;SDS011;1459;50.864;6.438;2022-07-23T00:34:50;17.05;;;15.05;;
2898;SDS011;1459;50.864;6.438;2022-07-23T00:37:18;17.42;;;14.82;;
2898;SDS011;1459;50.864;6.438;2022-07-23T00:39:45;18.25;;;15.13;;
2898;SDS011;1459;50.864;6.438;2022-07-23T00:42:13;20.73;;;14.07;;
2898;SDS011;1459;50.864;6.438;2022-07-23T00:44:39;16.15;;;14.40;;
2898;SDS011;1459;50.864;6.438;2022-07-23T00:47:07;21.52;;;16.35;;
2898;SDS011;1459;50.864;6.438;2022-07-23T00:49:34;20.33;;;16.95;;
2898;SDS011;1459;50.864;6.438;2022-07-23T00:52:01;21.63;;;17.45;;
2898;SDS011;1459;50.864;6.438;2022-07-23T00:54:30;22.20;;;16.60;;
2898;SDS011;1459;50.864;6.438;2022-07-23T00:56:57;21.90;;;17.65;;
2898;SDS011;1459;50.864;6.438;2022-07-23T00:59:24;24.27;;;18.50;;
2898;SDS011;1459;50.864;6.438;2022-07-23T01:01:51;20.58;;;18.00;;
2898;SDS011;1459;50.864;6.438;2022-07-23T01:04:18;22.33;;;18.27;;
2898;SDS011;1459;50.864;6.438;2022-07-23T01:06:45;19.40;;;17.30;;
2898;SDS011;1459;50.864;6.438;2022-07-23T01:09:13;24.98;;;19.17;;
2898;SDS011;1459;50.864;6.438;2022-07-23T01:11:41;20.73;;;18.08;;
2898;SDS011;1459;50.864;6.438;2022-07-23T01:14:12;23.25;;;19.15;;
2898;SDS011;1459;50.864;6.438;2022-07-23T01:16:40;32.83;;;24.45;;
2898;SDS011;1459;50.864;6.438;2022-07-23T01:19:08;34.35;;;24.38;;
2898;SDS011;1459;50.864;6.438;2022-07-23T01:21:35;31.13;;;22.67;;
2898;SDS011;1459;50.864;6.438;2022-07-23T01:24:06;29.30;;;23.67;;
2898;SDS011;1459;50.864;6.438;2022-07-23T01:26:34;31.67;;;24.73;;
2898;SDS011;1459;50.864;6.438;2022-07-23T01:29:02;41.63;;;25.35;;
2898;SDS011;1459;50.864;6.438;2022-07-23T01:31:29;34.38;;;25.33;;
2898;SDS011;1459;50.864;6.438;2022-07-23T01:33:57;27.58;;;22.90;;
2898;SDS011;1459;50.864;6.438;2022-07-23T01:36:24;27.00;;;21.05;;
2898;SDS011;1459;50.864;6.438;2022-07-23T01:38:51;25.95;;;22.40;;
2898;SDS011;1459;50.864;6.438;2022-07-23T01:41:20;38.63;;;24.00;;
2898;SDS011;1459;50.864;6.438;2022-07-23T01:43:47;26.90;;;20.45;;
2898;SDS011;1459;50.864;6.438;2022-07-23T01:46:14;24.45;;;20.33;;
2898;SDS011;1459;50.864;6.438;2022-07-23T01:48:41;32.33;;;25.63;;
2898;SDS011;1459;50.864;6.438;2022-07-23T01:51:08;27.27;;;21.98;;
2898;SDS011;1459;50.864;6.438;2022-07-23T01:53:35;26.50;;;20.40;;
2898;SDS011;1459;50.864;6.438;2022-07-23T01:56:02;25.63;;;21.83;;
2898;SDS011;1459;50.864;6.438;2022-07-23T01:58:31;37.72;;;23.75;;
2898;SDS011;1459;50.864;6.438;2022-07-23T02:00:58;33.90;;;23.92;;
2898;SDS011;1459;50.864;6.438;2022-07-23T02:03:25;32.28;;;24.65;;
2898;SDS011;1459;50.864;6.438;2022-07-23T02:05:53;33.10;;;23.52;;
2898;SDS011;1459;50.864;6.438;2022-07-23T02:08:20;33.70;;;22.88;;
2898;SDS011;1459;50.864;6.438;2022-07-23T02:10:47;33.42;;;23.08;;
2898;SDS011;1459;50.864;6.438;2022-07-23T02:13:16;33.10;;;24.17;;
2898;SDS011;1459;50.864;6.438;2022-07-23T02:15:45;29.95;;;24.45;;
2898;SDS011;1459;50.864;6.438;2022-07-23T02:18:12;32.15;;;22.58;;
2898;SDS011;1459;50.864;6.438;2022-07-23T02:20:39;29.80;;;21.45;;
2898;SDS011;1459;50.864;6.438;2022-07-23T02:23:07;24.92;;;20.42;;
2898;SDS011;1459;50.864;6.438;2022-07-23T02:25:34;24.50;;;21.65;;
2898;SDS011;1459;50.864;6.438;2022-07-23T02:28:01;26.02;;;20.63;;
2898;SDS011;1459;50.864;6.438;2022-07-23T02:30:28;28.75;;;21.88;;
2898;SDS011;1459;50.864;6.438;2022-07-23T02:32:57;26.88;;;20.63;;
2898;SDS011;1459;50.864;6.438;2022-07-23T02:35:24;32.60;;;23.75;;
2898;SDS011;1459;50.864;6.438;2022-07-23T02:37:51;34.45;;;24.77;;
2898;SDS011;1459;50.864;6.438;2022-07-23T02:40:18;38.75;;;28.08;;
2898;SDS011;1459;50.864;6.438;2022-07-23T02:42:45;44.65;;;27.58;;
2898;SDS011;1459;50.864;6.438;2022-07-23T02:45:12;41.50;;;27.70;;
2898;SDS011;1459;50.864;6.438;2022-07-23T02:47:39;38.00;;;24.50;;
2898;SDS011;1459;50.864;6.438;2022-07-23T02:50:08;36.47;;;25.60;;
2898;SDS011;1459;50.864;6.438;2022-07-23T02:52:37;33.17;;;23.65;;
2898;SDS011;1459;50.864;6.438;2022-07-23T02:55:04;35.17;;;25.55;;
2898;SDS011;1459;50.864;6.438;2022-07-23T02:57:34;37.70;;;25.55;;
2898;SDS011;1459;50.864;6.438;2022-07-23T03:00:01;29.65;;;24.38;;
2898;SDS011;1459;50.864;6.438;2022-07-23T03:02:29;31.73;;;23.35;;
2898;SDS011;1459;50.864;6.438;2022-07-23T03:04:56;31.27;;;24.73;;
2898;SDS011;1459;50.864;6.438;2022-07-23T03:07:25;28.08;;;20.63;;
2898;SDS011;1459;50.864;6.438;2022-07-23T03:09:52;34.78;;;23.80;;
2898;SDS011;1459;50.864;6.438;2022-07-23T03:12:21;30.67;;;23.55;;
2898;SDS011;1459;50.864;6.438;2022-07-23T03:14:48;24.73;;;20.40;;
2898;SDS011;1459;50.864;6.438;2022-07-23T03:17:15;20.83;;;18.67;;
2898;SDS011;1459;50.864;6.438;2022-07-23T03:19:42;20.10;;;18.05;;
2898;SDS011;1459;50.864;6.438;2022-07-23T03:22:09;19.77;;;17.50;;
2898;SDS011;1459;50.864;6.438;2022-07-23T03:24:37;18.15;;;16.20;;
2898;SDS011;1459;50.864;6.438;2022-07-23T03:27:22;15.80;;;14.27;;
2898;SDS011;1459;50.864;6.438;2022-07-23T03:29:50;17.08;;;15.02;;
2898;SDS011;1459;50.864;6.438;2022-07-23T03:32:18;16.83;;;15.13;;
2898;SDS011;1459;50.864;6.438;2022-07-23T03:34:46;15.05;;;13.65;;
2898;SDS011;1459;50.864;6.438;2022-07-23T03:37:13;24.23;;;18.45;;
2898;SDS011;1459;50.864;6.438;2022-07-23T03:39:41;23.90;;;18.80;;
2898;SDS011;1459;50.864;6.438;2022-07-23T03:42:08;29.42;;;22.10;;
2898;SDS011;1459;50.864;6.438;2022-07-23T03:44:35;27.13;;;20.25;;
2898;SDS011;1459;50.864;6.438;2022-07-23T03:47:03;30.55;;;24.77;;
2898;SDS011;1459;50.864;6.438;2022-07-23T03:49:32;32.38;;;23.98;;
2898;SDS011;1459;50.864;6.438;2022-07-23T03:52:00;36.60;;;26.58;;
2898;SDS011;1459;50.864;6.438;2022-07-23T03:54:30;34.17;;;24.17;;
2898;SDS011;1459;50.864;6.438;2022-07-23T03:56:59;37.70;;;24.55;;
2898;SDS011;1459;50.864;6.438;2022-07-23T03:59:26;29.05;;;22.05;;
2898;SDS011;1459;50.864;6.438;2022-07-23T04:01:53;33.20;;;24.33;;
2898;SDS011;1459;50.864;6.438;2022-07-23T04:04:20;28.80;;;22.90;;
2898;SDS011;1459;50.864;6.438;2022-07-23T04:06:47;30.80;;;23.48;;
2898;SDS011;1459;50.864;6.438;2022-07-23T04:09:16;30.55;;;23.52;;
2898;SDS011;1459;50.864;6.438;2022-07-23T04:11:43;28.00;;;21.27;;
2898;SDS011;1459;50.864;6.438;2022-07-23T04:14:12;26.95;;;20.52;;
2898;SDS011;1459;50.864;6.438;2022-07-23T04:16:39;23.05;;;16.92;;
2898;SDS011;1459;50.864;6.438;2022-07-23T04:19:06;39.58;;;24.60;;
2898;SDS011;1459;50.864;6.438;2022-07-23T04:21:33;39.00;;;25.48;;
2898;SDS011;1459;50.864;6.438;2022-07-23T04:24:00;40.85;;;26.90;;
2898;SDS011;1459;50.864;6.438;2022-07-23T04:26:27;36.38;;;27.15;;
2898;SDS011;1459;50.864;6.438;2022-07-23T04:28:54;33.33;;;24.88;;
2898;SDS011;1459;50.864;6.438;2022-07-23T04:31:22;28.77;;;21.80;;
2898;SDS011;1459;50.864;6.438;2022-07-23T04:33:49;25.00;;;19.98;;
2898;SDS011;1459;50.864;6.438;2022-07-23T04:36:16;24.48;;;20.13;;
2898;SDS011;1459;50.864;6.438;2022-07-23T04:38:43;61.50;;;27.25;;
2898;SDS011;1459;50.864;6.438;2022-07-23T04:41:10;68.93;;;27.73;;
2898;SDS011;1459;50.864;6.438;2022-07-23T04:43:37;82.78;;;28.60;;
2898;SDS011;1459;50.864;6.438;2022-07-23T04:46:04;166.10;;;34.08;;
2898;SDS011;1459;50.864;6.438;2022-07-23T04:48:33;65.38;;;30.40;;
2898;SDS011;1459;50.864;6.438;2022-07-23T04:51:00;104.68;;;32.83;;
2898;SDS011;1459;50.864;6.438;2022-07-23T04:53:27;106.80;;;30.77;;
2898;SDS011;1459;50.864;6.438;2022-07-23T04:55:54;65.07;;;31.85;;
2898;SDS011;1459;50.864;6.438;2022-07-23T04:58:21;68.75;;;28.73;;
2898;SDS011;1459;50.864;6.438;2022-07-23T05:00:48;124.65;;;33.28;;
2898;SDS011;1459;50.864;6.438;2022-07-23T05:03:15;147.13;;;33.47;;
2898;SDS011;1459;50.864;6.438;2022-07-23T05:05:44;99.07;;;29.23;;
2898;SDS011;1459;50.864;6.438;2022-07-23T05:08:11;62.20;;;30.83;;
2898;SDS011;1459;50.864;6.438;2022-07-23T05:10:38;89.53;;;31.20;;
2898;SDS011;1459;50.864;6.438;2022-07-23T05:13:05;62.47;;;30.83;;
2898;SDS011;1459;50.864;6.438;2022-07-23T05:15:32;141.27;;;34.13;;
2898;SDS011;1459;50.864;6.438;2022-07-23T05:17:59;181.27;;;33.25;;
2898;SDS011;1459;50.864;6.438;2022-07-23T05:20:26;110.60;;;32.38;;
2898;SDS011;1459;50.864;6.438;2022-07-23T05:22:55;91.07;;;30.80;;
2898;SDS011;1459;50.864;6.438;2022-07-23T05:25:22;100.88;;;32.05;;
2898;SDS011;1459;50.864;6.438;2022-07-23T05:27:49;65.60;;;30.70;;
2898;SDS011;1459;50.864;6.438;2022-07-23T05:30:16;50.70;;;27.92;;
2898;SDS011;1459;50.864;6.438;2022-07-23T05:32:43;45.88;;;27.60;;
2898;SDS011;1459;50.864;6.438;2022-07-23T05:35:10;75.82;;;28.27;;
2898;SDS011;1459;50.864;6.438;2022-07-23T05:37:37;69.43;;;27.92;;
2898;SDS011;1459;50.864;6.438;2022-07-23T05:40:06;52.33;;;27.83;;
2898;SDS011;1459;50.864;6.438;2022-07-23T05:42:35;45.35;;;26.58;;
2898;SDS011;1459;50.864;6.438;2022-07-23T05:45:04;40.50;;;27.48;;
2898;SDS011;1459;50.864;6.438;2022-07-23T05:47:38;51.53;;;26.92;;
2898;SDS011;1459;50.864;6.438;2022-07-23T05:50:06;55.80;;;27.60;;
2898;SDS011;1459;50.864;6.438;2022-07-23T05:52:34;36.45;;;27.27;;
2898;SDS011;1459;50.864;6.438;2022-07-23T05:55:01;73.07;;;29.50;;
2898;SDS011;1459;50.864;6.438;2022-07-23T05:57:29;69.40;;;30.55;;
2898;SDS011;1459;50.864;6.438;2022-07-23T05:59:56;45.63;;;28.10;;
2898;SDS011;1459;50.864;6.438;2022-07-23T06:02:23;77.68;;;29.17;;
2898;SDS011;1459;50.864;6.438;2022-07-23T06:04:50;139.27;;;32.33;;
2898;SDS011;1459;50.864;6.438;2022-07-23T06:07:17;80.70;;;28.25;;
2898;SDS011;1459;50.864;6.438;2022-07-23T06:09:44;40.25;;;26.42;;
2898;SDS011;1459;50.864;6.438;2022-07-23T06:12:12;38.67;;;31.98;;
2898;SDS011;1459;50.864;6.438;2022-07-23T06:14:40;42.00;;;31.20;;
2898;SDS011;1459;50.864;6.438;2022-07-23T06:17:07;35.88;;;29.52;;
2898;SDS011;1459;50.864;6.438;2022-07-23T06:19:34;38.50;;;32.80;;
2898;SDS011;1459;50.864;6.438;2022-07-23T06:22:01;44.00;;;33.50;;
2898;SDS011;1459;50.864;6.438;2022-07-23T06:24:28;38.72;;;31.98;;
2898;SDS011;1459;50.864;6.438;2022-07-23T06:26:55;39.85;;;31.27;;
2898;SDS011;1459;50.864;6.438;2022-07-23T06:29:22;40.67;;;32.88;;
2898;SDS011;1459;50.864;6.438;2022-07-23T06:31:51;39.78;;;34.13;;
2898;SDS011;1459;50.864;6.438;2022-07-23T06:34:18;37.65;;;30.65;;
2898;SDS011;1459;50.864;6.438;2022-07-23T06:36:45;35.05;;;30.73;;
2898;SDS011;1459;50.864;6.438;2022-07-23T06:39:12;36.63;;;30.35;;
2898;SDS011;1459;50.864;6.438;2022-07-23T06:41:39;40.35;;;33.28;;
2898;SDS011;1459;50.864;6.438;2022-07-23T06:44:07;40.50;;;33.70;;
2898;SDS011;1459;50.864;6.438;2022-07-23T06:46:34;36.85;;;32.00;;
2898;SDS011;1459;50.864;6.438;2022-07-23T06:49:02;37.15;;;31.45;;
2898;SDS011;1459;50.864;6.438;2022-07-23T06:51:30;33.80;;;29.33;;
2898;SDS011;1459;50.864;6.438;2022-07-23T06:53:57;39.00;;;29.33;;
2898;SDS011;1459;50.864;6.438;2022-07-23T06:56:24;34.53;;;30.92;;
2898;SDS011;1459;50.864;6.438;2022-07-23T06:58:51;34.72;;;30.30;;
2898;SDS011;1459;50.864;6.438;2022-07-23T07:01:18;41.20;;;33.13;;
2898;SDS011;1459;50.864;6.438;2022-07-23T07:03:46;43.40;;;34.50;;
2898;SDS011;1459;50.864;6.438;2022-07-23T07:06:15;42.35;;;35.03;;
2898;SDS011;1459;50.864;6.438;2022-07-23T07:08:42;38.75;;;32.40;;
2898;SDS011;1459;50.864;6.438;2022-07-23T07:11:09;38.38;;;31.60;;
2898;SDS011;1459;50.864;6.438;2022-07-23T07:13:36;39.05;;;34.13;;
2898;SDS011;1459;50.864;6.438;2022-07-23T07:16:03;38.35;;;33.85;;
2898;SDS011;1459;50.864;6.438;2022-07-23T07:18:31;39.25;;;33.78;;
2898;SDS011;1459;50.864;6.438;2022-07-23T07:20:58;40.78;;;35.28;;
2898;SDS011;1459;50.864;6.438;2022-07-23T07:23:26;34.45;;;30.75;;
2898;SDS011;1459;50.864;6.438;2022-07-23T07:25:53;36.33;;;32.53;;
2898;SDS011;1459;50.864;6.438;2022-07-23T07:28:20;40.13;;;34.40;;
2898;SDS011;1459;50.864;6.438;2022-07-23T07:30:47;40.15;;;35.92;;
2898;SDS011;1459;50.864;6.438;2022-07-23T07:33:14;36.03;;;32.40;;
2898;SDS011;1459;50.864;6.438;2022-07-23T07:35:41;34.78;;;31.17;;
2898;SDS011;1459;50.864;6.438;2022-07-23T07:38:08;36.95;;;33.13;;
2898;SDS011;1459;50.864;6.438;2022-07-23T07:40:36;38.83;;;34.90;;
2898;SDS011;1459;50.864;6.438;2022-07-23T07:43:03;38.28;;;34.33;;
2898;SDS011;1459;50.864;6.438;2022-07-23T07:45:30;37.28;;;33.15;;
2898;SDS011;1459;50.864;6.438;2022-07-23T07:47:57;36.78;;;33.25;;
2898;SDS011;1459;50.864;6.438;2022-07-23T07:50:25;37.60;;;33.60;;
2898;SDS011;1459;50.864;6.438;2022-07-23T07:52:52;36.20;;;31.77;;
2898;SDS011;1459;50.864;6.438;2022-07-23T07:55:19;39.65;;;35.40;;
2898;SDS011;1459;50.864;6.438;2022-07-23T07:57:47;38.78;;;32.95;;
2898;SDS011;1459;50.864;6.438;2022-07-23T08:00:14;38.88;;;34.42;;
2898;SDS011;1459;50.864;6.438;2022-07-23T08:02:42;39.83;;;35.80;;
2898;SDS011;1459;50.864;6.438;2022-07-23T08:05:10;36.80;;;33.00;;
2898;SDS011;1459;50.864;6.438;2022-07-23T08:07:38;35.95;;;32.42;;
2898;SDS011;1459;50.864;6.438;2022-07-23T08:10:06;32.80;;;29.50;;
2898;SDS011;1459;50.864;6.438;2022-07-23T08:12:39;37.28;;;33.22;;
2898;SDS011;1459;50.864;6.438;2022-07-23T08:15:12;37.42;;;33.53;;
2898;SDS011;1459;50.864;6.438;2022-07-23T08:17:40;40.70;;;35.22;;
2898;SDS011;1459;50.864;6.438;2022-07-23T08:20:08;35.85;;;31.95;;
2898;SDS011;1459;50.864;6.438;2022-07-23T08:22:44;36.83;;;32.88;;
2898;SDS011;1459;50.864;6.438;2022-07-23T08:25:12;36.80;;;32.90;;
2898;SDS011;1459;50.864;6.438;2022-07-23T08:27:39;35.33;;;31.70;;
2898;SDS011;1459;50.864;6.438;2022-07-23T08:30:07;35.88;;;31.20;;
2898;SDS011;1459;50.864;6.438;2022-07-23T08:32:48;34.90;;;31.17;;
2898;SDS011;1459;50.864;6.438;2022-07-23T08:35:16;33.03;;;29.83;;
2898;SDS011;1459;50.864;6.438;2022-07-23T08:37:43;31.83;;;28.73;;
2898;SDS011;1459;50.864;6.438;2022-07-23T08:40:12;32.55;;;29.33;;
2898;SDS011;1459;50.864;6.438;2022-07-23T08:42:40;29.80;;;26.80;;
2898;SDS011;1459;50.864;6.438;2022-07-23T08:45:07;29.73;;;26.52;;
2898;SDS011;1459;50.864;6.438;2022-07-23T08:47:36;26.30;;;23.83;;
2898;SDS011;1459;50.864;6.438;2022-07-23T08:50:05;27.58;;;24.80;;
2898;SDS011;1459;50.864;6.438;2022-07-23T08:52:34;29.90;;;27.10;;
2898;SDS011;1459;50.864;6.438;2022-07-23T08:55:03;30.30;;;27.13;;
2898;SDS011;1459;50.864;6.438;2022-07-23T08:57:31;24.15;;;21.75;;
2898;SDS011;1459;50.864;6.438;2022-07-23T08:59:58;25.58;;;23.27;;
2898;SDS011;1459;50.864;6.438;2022-07-23T09:02:25;27.58;;;24.85;;
2898;SDS011;1459;50.864;6.438;2022-07-23T09:04:52;26.45;;;23.95;;
2898;SDS011;1459;50.864;6.438;2022-07-23T09:07:21;26.80;;;23.90;;
2898;SDS011;1459;50.864;6.438;2022-07-23T09:09:50;28.17;;;25.40;;
2898;SDS011;1459;50.864;6.438;2022-07-23T09:12:32;24.42;;;22.15;;
2898;SDS011;1459;50.864;6.438;2022-07-23T09:15:03;22.55;;;20.55;;
2898;SDS011;1459;50.864;6.438;2022-07-23T09:17:36;22.90;;;20.83;;
2898;SDS011;1459;50.864;6.438;2022-07-23T09:20:07;21.10;;;19.20;;
2898;SDS011;1459;50.864;6.438;2022-07-23T09:22:38;22.73;;;20.73;;
2898;SDS011;1459;50.864;6.438;2022-07-23T09:25:08;22.88;;;20.77;;
2898;SDS011;1459;50.864;6.438;2022-07-23T09:30:29;21.40;;;18.60;;
2898;SDS011;1459;50.864;6.438;2022-07-23T09:33:04;20.25;;;18.30;;
2898;SDS011;1459;50.864;6.438;2022-07-23T09:35:45;19.30;;;17.60;;
2898;SDS011;1459;50.864;6.438;2022-07-23T09:38:15;21.95;;;19.77;;
2898;SDS011;1459;50.864;6.438;2022-07-23T09:40:43;22.15;;;20.05;;
2898;SDS011;1459;50.864;6.438;2022-07-23T09:43:11;22.05;;;20.00;;
2898;SDS011;1459;50.864;6.438;2022-07-23T09:45:39;17.98;;;16.35;;
2898;SDS011;1459;50.864;6.438;2022-07-23T09:48:12;19.40;;;15.73;;
2898;SDS011;1459;50.864;6.438;2022-07-23T09:50:42;17.50;;;15.85;;
2898;SDS011;1459;50.864;6.438;2022-07-23T09:53:10;17.73;;;16.13;;
2898;SDS011;1459;50.864;6.438;2022-07-23T09:55:52;14.88;;;13.38;;
2898;SDS011;1459;50.864;6.438;2022-07-23T09:58:23;15.07;;;13.48;;
2898;SDS011;1459;50.864;6.438;2022-07-23T10:00:52;11.95;;;10.82;;
2898;SDS011;1459;50.864;6.438;2022-07-23T10:03:20;16.13;;;14.63;;
2898;SDS011;1459;50.864;6.438;2022-07-23T10:05:47;15.55;;;14.25;;
2898;SDS011;1459;50.864;6.438;2022-07-23T10:08:17;17.80;;;15.18;;
2898;SDS011;1459;50.864;6.438;2022-07-23T10:10:47;15.02;;;13.75;;
2898;SDS011;1459;50.864;6.438;2022-07-23T10:13:14;14.35;;;11.95;;
2898;SDS011;1459;50.864;6.438;2022-07-23T10:16:01;16.55;;;14.95;;
2898;SDS011;1459;50.864;6.438;2022-07-23T10:18:28;12.98;;;11.77;;
2898;SDS011;1459;50.864;6.438;2022-07-23T10:20:57;18.00;;;13.27;;
2898;SDS011;1459;50.864;6.438;2022-07-23T10:23:35;14.00;;;12.60;;
2898;SDS011;1459;50.864;6.438;2022-07-23T10:26:11;16.55;;;14.95;;
2898;SDS011;1459;50.864;6.438;2022-07-23T10:28:58;12.93;;;11.63;;
2898;SDS011;1459;50.864;6.438;2022-07-23T10:31:37;11.88;;;10.60;;
2898;SDS011;1459;50.864;6.438;2022-07-23T10:34:19;10.02;;;9.02;;
2898;SDS011;1459;50.864;6.438;2022-07-23T10:36:52;10.85;;;9.48;;
2898;SDS011;1459;50.864;6.438;2022-07-23T10:39:24;10.70;;;8.63;;
2898;SDS011;1459;50.864;6.438;2022-07-23T10:42:08;11.93;;;7.70;;
2898;SDS011;1459;50.864;6.438;2022-07-23T10:44:40;9.85;;;7.95;;
2898;SDS011;1459;50.864;6.438;2022-07-23T10:47:09;10.52;;;9.40;;
2898;SDS011;1459;50.864;6.438;2022-07-23T10:49:53;9.70;;;8.70;;
2898;SDS011;1459;50.864;6.438;2022-07-23T10:52:41;10.55;;;8.95;;
2898;SDS011;1459;50.864;6.438;2022-07-23T10:55:41;10.18;;;8.15;;
2898;SDS011;1459;50.864;6.438;2022-07-23T10:58:11;8.80;;;7.00;;
2898;SDS011;1459;50.864;6.438;2022-07-23T11:00:43;7.43;;;6.10;;
2898;SDS011;1459;50.864;6.438;2022-07-23T11:05:58;9.07;;;7.70;;
2898;SDS011;1459;50.864;6.438;2022-07-23T11:08:25;9.13;;;8.25;;
2898;SDS011;1459;50.864;6.438;2022-07-23T11:10:54;11.02;;;7.03;;
2898;SDS011;1459;50.864;6.438;2022-07-23T11:13:41;8.48;;;6.30;;
2898;SDS011;1459;50.864;6.438;2022-07-23T11:16:14;6.78;;;5.38;;
2898;SDS011;1459;50.864;6.438;2022-07-23T11:18:59;7.10;;;5.63;;
2898;SDS011;1459;50.864;6.438;2022-07-23T11:21:45;8.05;;;5.55;;
2898;SDS011;1459;50.864;6.438;2022-07-23T11:24:14;7.37;;;4.70;;
2898;SDS011;1459;50.864;6.438;2022-07-23T11:26:58;5.70;;;4.53;;
2898;SDS011;1459;50.864;6.438;2022-07-23T11:29:45;6.20;;;5.60;;
2898;SDS011;1459;50.864;6.438;2022-07-23T11:32:30;6.35;;;5.03;;
2898;SDS011;1459;50.864;6.438;2022-07-23T11:35:17;7.18;;;5.72;;
2898;SDS011;1459;50.864;6.438;2022-07-23T11:37:46;4.88;;;4.35;;
2898;SDS011;1459;50.864;6.438;2022-07-23T11:40:15;7.00;;;4.55;;
2898;SDS011;1459;50.864;6.438;2022-07-23T11:42:51;4.38;;;3.80;;
2898;SDS011;1459;50.864;6.438;2022-07-23T11:45:21;4.45;;;4.05;;
2898;SDS011;1459;50.864;6.438;2022-07-23T11:47:49;6.55;;;4.25;;
2898;SDS011;1459;50.864;6.438;2022-07-23T11:50:17;7.38;;;5.25;;
2898;SDS011;1459;50.864;6.438;2022-07-23T11:52:44;6.60;;;5.10;;
2898;SDS011;1459;50.864;6.438;2022-07-23T11:55:12;6.93;;;4.70;;
2898;SDS011;1459;50.864;6.438;2022-07-23T11:57:41;6.90;;;5.47;;
2898;SDS011;1459;50.864;6.438;2022-07-23T12:00:11;4.57;;;4.03;;
2898;SDS011;1459;50.864;6.438;2022-07-23T12:02:42;5.27;;;4.10;;
2898;SDS011;1459;50.864;6.438;2022-07-23T12:05:11;6.53;;;5.00;;
2898;SDS011;1459;50.864;6.438;2022-07-23T12:07:40;4.63;;;4.23;;
2898;SDS011;1459;50.864;6.438;2022-07-23T12:10:15;5.70;;;4.55;;
2898;SDS011;1459;50.864;6.438;2022-07-23T12:12:45;8.30;;;4.33;;
2898;SDS011;1459;50.864;6.438;2022-07-23T12:15:16;5.90;;;4.40;;
2898;SDS011;1459;50.864;6.438;2022-07-23T12:17:47;7.70;;;4.20;;
2898;SDS011;1459;50.864;6.438;2022-07-23T12:20:16;4.67;;;3.50;;
2898;SDS011;1459;50.864;6.438;2022-07-23T12:22:46;3.80;;;3.40;;
2898;SDS011;1459;50.864;6.438;2022-07-23T12:25:15;5.20;;;3.87;;
2898;SDS011;1459;50.864;6.438;2022-07-23T12:27:44;6.37;;;4.53;;
2898;SDS011;1459;50.864;6.438;2022-07-23T12:30:16;4.97;;;4.00;;
2898;SDS011;1459;50.864;6.438;2022-07-23T12:32:50;4.57;;;4.07;;
2898;SDS011;1459;50.864;6.438;2022-07-23T12:35:20;5.17;;;4.10;;
2898;SDS011;1459;50.864;6.438;2022-07-23T12:37:49;5.20;;;3.97;;
2898;SDS011;1459;50.864;6.438;2022-07-23T12:40:27;5.20;;;3.90;;
2898;SDS011;1459;50.864;6.438;2022-07-23T12:42:55;5.07;;;3.93;;
2898;SDS011;1459;50.864;6.438;2022-07-23T12:45:24;6.77;;;3.80;;
2898;SDS011;1459;50.864;6.438;2022-07-23T12:48:03;5.13;;;3.30;;
2898;SDS011;1459;50.864;6.438;2022-07-23T12:50:39;4.53;;;3.83;;
2898;SDS011;1459;50.864;6.438;2022-07-23T12:53:11;7.87;;;4.17;;
2898;SDS011;1459;50.864;6.438;2022-07-23T12:55:42;4.37;;;3.47;;
2898;SDS011;1459;50.864;6.438;2022-07-23T12:58:12;4.13;;;3.70;;
2898;SDS011;1459;50.864;6.438;2022-07-23T13:00:54;5.57;;;3.63;;
2898;SDS011;1459;50.864;6.438;2022-07-23T13:03:25;5.20;;;3.93;;
2898;SDS011;1459;50.864;6.438;2022-07-23T13:05:55;3.53;;;3.00;;
2898;SDS011;1459;50.864;6.438;2022-07-23T13:08:24;6.83;;;3.80;;
2898;SDS011;1459;50.864;6.438;2022-07-23T13:10:53;6.30;;;3.73;;
2898;SDS011;1459;50.864;6.438;2022-07-23T13:13:21;3.53;;;3.13;;
2898;SDS011;1459;50.864;6.438;2022-07-23T13:15:50;3.70;;;3.30;;
2898;SDS011;1459;50.864;6.438;2022-07-23T13:18:18;4.53;;;3.73;;
2898;SDS011;1459;50.864;6.438;2022-07-23T13:20:48;4.07;;;3.27;;
2898;SDS011;1459;50.864;6.438;2022-07-23T13:23:16;4.87;;;3.80;;
2898;SDS011;1459;50.864;6.438;2022-07-23T13:25:44;4.03;;;3.63;;
2898;SDS011;1459;50.864;6.438;2022-07-23T13:28:11;5.97;;;3.90;;
2898;SDS011;1459;50.864;6.438;2022-07-23T13:30:39;5.50;;;4.00;;
2898;SDS011;1459;50.864;6.438;2022-07-23T13:33:07;4.30;;;3.40;;
2898;SDS011;1459;50.864;6.438;2022-07-23T13:35:35;3.43;;;3.13;;
2898;SDS011;1459;50.864;6.438;2022-07-23T13:38:05;5.13;;;3.10;;
2898;SDS011;1459;50.864;6.438;2022-07-23T13:40:34;4.10;;;2.90;;
2898;SDS011;1459;50.864;6.438;2022-07-23T13:43:03;3.90;;;3.50;;
2898;SDS011;1459;50.864;6.438;2022-07-23T13:45:31;6.80;;;3.30;;
2898;SDS011;1459;50.864;6.438;2022-07-23T13:47:58;4.33;;;3.77;;
2898;SDS011;1459;50.864;6.438;2022-07-23T13:50:26;7.10;;;2.83;;
2898;SDS011;1459;50.864;6.438;2022-07-23T13:52:53;3.73;;;3.23;;
2898;SDS011;1459;50.864;6.438;2022-07-23T13:55:22;4.13;;;2.93;;
2898;SDS011;1459;50.864;6.438;2022-07-23T13:57:50;4.03;;;3.40;;
2898;SDS011;1459;50.864;6.438;2022-07-23T14:00:18;3.70;;;2.97;;
2898;SDS011;1459;50.864;6.438;2022-07-23T14:02:45;3.80;;;3.20;;
2898;SDS011;1459;50.864;6.438;2022-07-23T14:05:12;3.90;;;3.20;;
2898;SDS011;1459;50.864;6.438;2022-07-23T14:07:40;3.63;;;3.10;;
2898;SDS011;1459;50.864;6.438;2022-07-23T14:10:09;5.67;;;3.70;;
2898;SDS011;1459;50.864;6.438;2022-07-23T14:12:38;5.43;;;3.10;;
2898;SDS011;1459;50.864;6.438;2022-07-23T14:15:05;5.30;;;3.37;;
2898;SDS011;1459;50.864;6.438;2022-07-23T14:17:34;3.50;;;3.20;;
2898;SDS011;1459;50.864;6.438;2022-07-23T14:20:02;5.33;;;3.30;;
2898;SDS011;1459;50.864;6.438;2022-07-23T14:22:30;3.57;;;3.20;;
2898;SDS011;1459;50.864;6.438;2022-07-23T14:24:57;3.57;;;3.27;;
2898;SDS011;1459;50.864;6.438;2022-07-23T14:27:25;3.07;;;2.80;;
2898;SDS011;1459;50.864;6.438;2022-07-23T14:29:55;5.43;;;3.00;;
2898;SDS011;1459;50.864;6.438;2022-07-23T14:32:22;4.03;;;3.20;;
2898;SDS011;1459;50.864;6.438;2022-07-23T14:34:49;5.53;;;3.23;;
2898;SDS011;1459;50.864;6.438;2022-07-23T14:37:17;4.03;;;2.87;;
2898;SDS011;1459;50.864;6.438;2022-07-23T14:39:45;4.67;;;3.30;;
2898;SDS011;1459;50.864;6.438;2022-07-23T14:42:12;3.73;;;3.20;;
2898;SDS011;1459;50.864;6.438;2022-07-23T14:44:39;3.13;;;2.70;;
2898;SDS011;1459;50.864;6.438;2022-07-23T14:47:09;3.90;;;3.07;;
2898;SDS011;1459;50.864;6.438;2022-07-23T14:49:36;3.00;;;2.60;;
2898;SDS011;1459;50.864;6.438;2022-07-23T14:52:04;4.50;;;2.90;;
2898;SDS011;1459;50.864;6.438;2022-07-23T14:54:32;2.83;;;2.53;;
2898;SDS011;1459;50.864;6.438;2022-07-23T14:57:00;3.33;;;2.40;;
2898;SDS011;1459;50.864;6.438;2022-07-23T14:59:27;3.40;;;3.10;;
2898;SDS011;1459;50.864;6.438;2022-07-23T15:01:56;4.50;;;2.80;;
2898;SDS011;1459;50.864;6.438;2022-07-23T15:04:25;4.30;;;2.70;;
2898;SDS011;1459;50.864;6.438;2022-07-23T15:06:52;2.97;;;2.50;;
2898;SDS011;1459;50.864;6.438;2022-07-23T15:09:19;3.30;;;3.00;;
2898;SDS011;1459;50.864;6.438;2022-07-23T15:11:47;2.93;;;2.50;;